Time;durP1;ratioP1;P1;durP2;ratioP2;P2;SDS_P1;SDS_P2;PMS_P1;PMS_P2;Temp;Humidity;BMP_temperature;BMP_pressure;BME280_temperature;BME280_humidity;BME280_pressure;Samples;Min_cycle;Max_cycle;Signal;HPM_P1;HPM_P2
2022/12/02 00:00:57;;;;;;;29.97;19.10;;;2.60;99.90;1.70;101709;;;;582452;242;24125;-76
2022/12/02 00:03:28;;;;;;;32.03;19.37;;;2.60;99.90;1.70;101703;;;;582433;242;24148;-79
2022/12/02 00:05:54;;;;;;;31.43;19.67;;;2.60;99.90;1.60;101702;;;;582904;242;24101;-75
2022/12/02 00:08:21;;;;;;;28.50;18.40;;;2.50;99.90;1.60;101697;;;;583592;242;24054;-75
2022/12/02 00:10:48;;;;;;;29.80;20.53;;;2.50;99.90;1.60;101699;;;;585036;242;24069;-75
2022/12/02 00:13:20;;;;;;;31.13;19.10;;;2.40;99.90;1.40;101696;;;;584872;242;24065;-73
2022/12/02 00:16:00;;;;;;;31.10;19.23;;;2.40;99.90;1.30;101705;;;;583949;242;24069;-74
2022/12/02 00:18:28;;;;;;;31.87;20.43;;;2.30;99.90;1.30;101699;;;;583262;241;24078;-74
2022/12/02 00:20:56;;;;;;;32.30;20.97;;;2.20;99.90;1.20;101698;;;;582693;242;24059;-75
2022/12/02 00:23:24;;;;;;;28.17;18.97;;;2.10;99.90;1.10;101702;;;;593302;242;24086;-76
2022/12/02 00:25:52;;;;;;;35.73;20.17;;;2.00;99.90;1.10;101700;;;;582262;242;24050;-73
2022/12/02 00:28:20;;;;;;;33.60;20.17;;;2.00;99.90;1.00;101705;;;;584120;241;24056;-74
2022/12/02 00:30:48;;;;;;;29.63;20.40;;;2.00;99.90;1.00;101699;;;;582278;242;25099;-74
2022/12/02 00:33:17;;;;;;;35.70;21.17;;;1.90;99.90;0.90;101700;;;;582404;242;24050;-74
2022/12/02 00:35:48;;;;;;;35.80;21.77;;;1.80;99.90;0.90;101706;;;;582192;242;24098;-74
2022/12/02 00:38:12;;;;;;;36.57;21.97;;;1.80;99.90;0.80;101697;;;;583499;242;24050;-74
2022/12/02 00:40:41;;;;;;;39.28;25.92;;;1.70;99.90;0.80;101702;;;;577616;242;35167;-74
2022/12/02 00:48:41;;;;;;;36.63;22.50;;;1.70;99.90;0.70;101697;;;;583230;242;24058;-78
2022/12/02 00:51:09;;;;;;;34.53;22.57;;;1.70;99.90;0.70;101691;;;;583176;242;24052;-77
2022/12/02 00:53:37;;;;;;;35.13;21.73;;;1.60;99.90;0.70;101693;;;;583217;242;24054;-79
2022/12/02 00:56:05;;;;;;;30.47;19.77;;;1.60;99.90;0.70;101692;;;;583258;242;24105;-79
2022/12/02 00:58:33;;;;;;;31.10;19.93;;;1.70;99.90;0.70;101683;;;;583110;242;24048;-76
2022/12/02 01:01:01;;;;;;;33.53;22.48;;;1.60;99.90;0.70;101687;;;;578124;242;35168;-77
2022/12/02 01:03:29;;;;;;;30.47;18.60;;;1.70;99.90;0.70;101685;;;;583119;242;24144;-77
2022/12/02 01:05:57;;;;;;;32.27;20.70;;;1.70;99.90;0.70;101685;;;;583137;242;24102;-79
2022/12/02 01:08:26;;;;;;;34.97;21.27;;;1.70;99.90;0.70;101683;;;;583150;242;24114;-77
2022/12/02 01:10:58;;;;;;;39.00;22.47;;;1.60;99.90;0.60;101691;;;;582961;242;24109;-78
2022/12/02 01:13:24;;;;;;;33.93;21.27;;;1.60;99.90;0.60;101693;;;;582291;242;24063;-76
2022/12/02 01:15:52;;;;;;;36.67;20.77;;;1.60;99.90;0.50;101687;;;;582184;242;24085;-75
2022/12/02 01:18:20;;;;;;;40.40;21.53;;;1.60;99.90;0.60;101681;;;;583781;242;24055;-77
2022/12/02 01:20:48;;;;;;;34.60;21.40;;;1.50;99.90;0.60;101684;;;;583325;242;24065;-77
2022/12/02 01:23:16;;;;;;;30.13;20.37;;;1.50;99.90;0.60;101667;;;;583134;242;24082;-74
2022/12/02 01:25:44;;;;;;;32.93;19.03;;;1.50;99.90;0.60;101679;;;;583049;242;24052;-75
2022/12/02 01:28:12;;;;;;;33.90;20.17;;;1.50;99.90;0.60;101677;;;;583062;242;24043;-74
2022/12/02 01:30:40;;;;;;;33.03;19.20;;;1.50;99.90;0.50;101671;;;;582740;242;24060;-74
2022/12/02 01:33:07;;;;;;;31.93;18.63;;;1.50;99.90;0.50;101670;;;;582547;242;24081;-75
2022/12/02 01:35:35;;;;;;;36.47;19.07;;;1.50;99.90;0.50;101681;;;;593408;238;24090;-73
2022/12/02 01:38:03;;;;;;;30.17;19.50;;;1.50;99.90;0.50;101675;;;;582428;242;24039;-76
2022/12/02 01:40:31;;;;;;;36.10;21.43;;;1.50;99.90;0.50;101669;;;;582780;242;24064;-73
2022/12/02 01:42:59;;;;;;;32.83;21.50;;;1.50;99.90;0.50;101663;;;;582764;242;24071;-75
2022/12/02 01:45:30;;;;;;;33.93;19.90;;;1.50;99.90;0.50;101677;;;;582783;242;24063;-73
2022/12/02 01:47:55;;;;;;;30.63;19.20;;;1.50;99.90;0.50;101676;;;;592530;242;24078;-73
2022/12/02 01:50:23;;;;;;;31.43;19.13;;;1.50;99.90;0.60;101686;;;;582667;242;24037;-75
2022/12/02 01:52:51;;;;;;;32.50;19.50;;;1.50;99.90;0.60;101682;;;;582679;242;24036;-75
2022/12/02 01:55:19;;;;;;;35.10;19.87;;;1.50;99.90;0.60;101675;;;;582449;242;24082;-75
2022/12/02 01:57:47;;;;;;;31.47;19.50;;;1.50;99.90;0.50;101671;;;;584168;242;24060;-75
2022/12/02 02:00:15;;;;;;;34.40;18.63;;;1.50;99.90;0.50;101669;;;;582530;242;24047;-74
2022/12/02 02:02:47;;;;;;;31.63;19.10;;;1.50;99.90;0.50;101665;;;;582453;242;24044;-74
2022/12/02 02:05:11;;;;;;;29.60;19.33;;;1.50;99.90;0.50;101654;;;;583999;242;24061;-75
2022/12/02 02:07:39;;;;;;;31.00;19.03;;;1.40;99.90;0.40;101651;;;;581897;242;24063;-76
2022/12/02 02:10:08;;;;;;;31.97;19.73;;;1.50;99.90;0.40;101655;;;;582417;242;24138;-74
2022/12/02 02:12:36;;;;;;;31.33;19.37;;;1.40;99.90;0.40;101658;;;;582475;242;27277;-76
2022/12/02 02:15:04;;;;;;;35.90;20.10;;;1.40;99.90;0.40;101664;;;;582045;242;24163;-74
2022/12/02 02:17:31;;;;;;;31.67;20.27;;;1.50;99.90;0.30;101661;;;;582127;242;24067;-75
2022/12/02 02:19:59;;;;;;;33.90;19.10;;;1.30;99.90;0.30;101658;;;;592878;242;24079;-75
2022/12/02 02:22:48;;;;;;;30.20;19.20;;;1.30;99.90;0.30;101656;;;;583876;238;24093;-74
2022/12/02 02:25:16;;;;;;;30.07;19.03;;;1.30;99.90;0.30;101657;;;;583748;242;24052;-74
2022/12/02 02:27:44;;;;;;;28.13;18.50;;;1.30;99.90;0.20;101667;;;;583882;238;24091;-76
2022/12/02 02:30:15;;;;;;;35.67;19.37;;;1.30;99.90;0.30;101657;;;;584905;242;24095;-75
2022/12/02 02:32:40;;;;;;;30.03;19.17;;;1.30;99.90;0.30;101664;;;;593117;242;24152;-78
2022/12/02 02:35:12;;;;;;;28.70;18.83;;;1.30;99.90;0.30;101646;;;;582992;242;24072;-74
2022/12/02 02:37:36;;;;;;;27.43;18.60;;;1.30;99.90;0.40;101664;;;;583143;242;25090;-77
2022/12/02 02:40:09;;;;;;;29.93;18.13;;;1.30;99.90;0.30;101655;;;;583036;242;24073;-75
2022/12/02 02:42:33;;;;;;;28.37;18.17;;;1.30;99.90;0.30;101658;;;;584842;242;24085;-76
2022/12/02 02:45:02;;;;;;;29.10;17.37;;;1.30;99.90;0.30;101656;;;;583444;242;24094;-75
2022/12/02 02:47:33;;;;;;;28.70;17.73;;;1.30;99.90;0.30;101666;;;;594055;242;24074;-76
2022/12/02 02:49:57;;;;;;;28.23;17.40;;;1.30;99.90;0.30;101668;;;;592749;242;24051;-73
2022/12/02 02:52:28;;;;;;;28.00;17.40;;;1.30;99.90;0.30;101661;;;;582969;242;24073;-74
2022/12/02 02:54:53;;;;;;;28.47;17.20;;;1.30;99.90;0.30;101658;;;;592592;242;24060;-75
2022/12/02 02:57:20;;;;;;;27.13;17.83;;;1.30;99.90;0.30;101668;;;;583025;242;24071;-77
2022/12/02 02:59:48;;;;;;;29.07;18.63;;;1.30;99.90;0.30;101664;;;;583112;242;24118;-80
2022/12/02 03:02:16;;;;;;;26.57;16.33;;;1.30;99.90;0.30;101662;;;;584582;242;24092;-75
2022/12/02 03:04:44;;;;;;;29.93;17.03;;;1.30;99.90;0.30;101651;;;;584598;242;25155;-76
2022/12/02 03:07:12;;;;;;;29.07;17.67;;;1.30;99.90;0.30;101655;;;;582693;242;24117;-79
2022/12/02 03:09:40;;;;;;;26.83;17.27;;;1.20;99.90;0.20;101670;;;;582629;242;24042;-77
2022/12/02 03:12:11;;;;;;;28.13;16.83;;;1.20;99.90;0.20;101668;;;;582644;242;24109;-79
2022/12/02 03:14:36;;;;;;;32.15;20.60;;;1.20;99.90;0.20;101663;;;;578495;242;35158;-74
2022/12/02 03:17:07;;;;;;;29.93;17.37;;;1.20;99.90;0.20;101656;;;;582222;242;24176;-74
2022/12/02 03:19:35;;;;;;;29.87;17.20;;;1.20;99.90;0.20;101651;;;;573937;246;24114;-74
2022/12/02 03:22:00;;;;;;;31.20;17.00;;;1.20;99.90;0.20;101663;;;;573619;246;24098;-76
2022/12/02 03:24:29;;;;;;;28.60;17.13;;;1.10;99.90;0.20;101655;;;;563947;251;24136;-77
2022/12/02 03:26:57;;;;;;;28.53;16.97;;;1.10;99.90;0.20;101656;;;;564141;251;24206;-76
2022/12/02 03:29:28;;;;;;;28.73;16.00;;;1.10;99.90;0.10;101661;;;;563597;251;24159;-75
2022/12/02 03:31:53;;;;;;;26.57;17.27;;;1.10;99.90;0.10;101651;;;;563946;251;24123;-78
2022/12/02 03:34:21;;;;;;;27.33;16.23;;;1.10;99.90;0.10;101644;;;;563922;251;24114;-80
2022/12/02 03:36:49;;;;;;;29.23;15.70;;;1.10;99.90;0.10;101647;;;;572723;251;24145;-79
2022/12/02 03:39:20;;;;;;;28.33;17.10;;;1.00;99.90;0.10;101648;;;;563742;251;24133;-78
2022/12/02 03:41:44;;;;;;;28.57;16.20;;;1.00;99.90;0.00;101653;;;;574552;249;24125;-80
2022/12/02 03:44:13;;;;;;;27.37;16.33;;;1.00;99.90;0.00;101645;;;;573734;250;24119;-75
2022/12/02 03:46:42;;;;;;;28.90;16.00;;;1.00;99.90;0.10;101643;;;;575240;246;24119;-75
2022/12/02 03:49:10;;;;;;;32.73;15.87;;;1.00;99.90;0.00;101637;;;;564997;251;24111;-75
2022/12/02 03:51:38;;;;;;;30.67;16.83;;;1.00;99.90;0.00;101650;;;;564771;251;24119;-75
2022/12/02 03:54:09;;;;;;;27.33;16.10;;;1.00;99.90;-0.10;101646;;;;564340;251;24118;-74
2022/12/02 03:56:39;;;;;;;29.77;16.00;;;0.90;99.90;0.00;101647;;;;564685;251;24112;-73
2022/12/02 03:59:11;;;;;;;28.00;15.33;;;0.90;99.90;-0.10;101649;;;;564614;251;24112;-79
2022/12/02 04:01:39;;;;;;;24.60;15.37;;;0.90;99.90;-0.10;101648;;;;564201;251;24103;-74
2022/12/02 04:04:04;;;;;;;29.87;16.03;;;0.90;99.90;-0.10;101656;;;;564401;251;24108;-75
2022/12/02 04:06:32;;;;;;;27.80;17.03;;;0.90;99.90;-0.10;101654;;;;564641;251;24119;-74
2022/12/02 04:09:04;;;;;;;31.17;16.67;;;0.90;99.90;0.00;101655;;;;564594;249;24138;-75
2022/12/02 04:11:28;;;;;;;29.90;16.50;;;0.90;99.90;-0.10;101647;;;;564002;251;24191;-75
2022/12/02 04:13:56;;;;;;;26.93;16.97;;;0.90;99.90;-0.10;101650;;;;564307;251;24150;-74
2022/12/02 04:16:24;;;;;;;27.13;16.73;;;0.90;99.90;-0.10;101642;;;;564290;251;24122;-78
2022/12/02 04:18:51;;;;;;;29.33;17.47;;;0.90;99.90;0.00;101645;;;;564324;249;24112;-77
2022/12/02 04:21:20;;;;;;;33.40;17.77;;;0.90;99.90;0.00;101646;;;;563684;251;24168;-78
2022/12/02 04:23:47;;;;;;;35.27;17.83;;;0.90;99.90;0.00;101633;;;;563887;251;24104;-78
2022/12/02 04:26:15;;;;;;;30.17;18.13;;;1.00;99.90;0.00;101647;;;;563657;251;24100;-81
2022/12/02 04:28:46;;;;;;;28.90;17.40;;;0.90;99.90;0.00;101642;;;;563485;251;24112;-76
2022/12/02 04:31:12;;;;;;;38.27;20.07;;;0.90;99.90;0.00;101640;;;;562803;251;24114;-76
2022/12/02 04:33:40;;;;;;;33.63;18.57;;;0.90;99.90;0.00;101644;;;;563406;251;24144;-75
2022/12/02 04:36:08;;;;;;;37.53;18.97;;;0.90;99.90;0.00;101637;;;;574225;246;24111;-74
2022/12/02 04:38:36;;;;;;;37.30;20.03;;;0.90;99.90;-0.10;101644;;;;582818;246;24124;-73
2022/12/02 04:41:05;;;;;;;33.47;18.60;;;0.90;99.90;-0.10;101643;;;;563367;251;24174;-73
2022/12/02 04:43:33;;;;;;;30.17;17.83;;;0.90;99.90;-0.10;101638;;;;583402;246;24110;-75
2022/12/02 04:46:01;;;;;;;33.60;19.20;;;0.90;99.90;-0.10;101636;;;;574506;246;24092;-75
2022/12/02 04:48:29;;;;;;;35.03;19.37;;;0.90;99.90;0.00;101639;;;;563937;251;24118;-74
2022/12/02 04:50:57;;;;;;;36.23;20.27;;;0.90;99.90;0.00;101632;;;;574496;246;24067;-75
2022/12/02 04:53:25;;;;;;;36.17;19.07;;;1.00;99.90;0.00;101632;;;;575837;246;24141;-74
2022/12/02 04:55:52;;;;;;;35.37;18.63;;;0.90;99.90;0.00;101636;;;;564908;250;24099;-74
2022/12/02 04:58:20;;;;;;;34.60;19.73;;;0.90;99.90;-0.10;101635;;;;575301;246;25199;-72
2022/12/02 05:00:49;;;;;;;40.60;20.23;;;0.90;99.90;-0.10;101646;;;;575199;246;24068;-73
2022/12/02 05:03:17;;;;;;;35.30;18.23;;;0.90;99.90;-0.10;101631;;;;564457;251;24144;-74
2022/12/02 05:05:45;;;;;;;32.67;18.63;;;0.90;99.90;0.00;101629;;;;575065;246;24181;-76
2022/12/02 05:08:13;;;;;;;41.15;23.80;;;0.90;99.90;0.00;101632;;;;569818;246;35303;-73
2022/12/02 05:10:41;;;;;;;34.33;20.10;;;1.00;99.90;0.00;101638;;;;564393;251;24169;-74
2022/12/02 05:13:09;;;;;;;38.20;19.93;;;0.90;99.90;0.00;101638;;;;575027;246;24133;-78
2022/12/02 05:15:36;;;;;;;35.07;19.00;;;1.00;99.90;0.00;101638;;;;574453;246;24098;-74
2022/12/02 05:18:04;;;;;;;38.80;20.73;;;1.00;99.90;0.00;101637;;;;564419;251;24122;-80
2022/12/02 05:20:32;;;;;;;34.10;18.73;;;1.00;99.90;0.00;101643;;;;583764;246;24152;-77
2022/12/02 05:23:00;;;;;;;35.43;19.60;;;1.00;99.90;0.00;101643;;;;574721;246;24129;-74
2022/12/02 05:25:29;;;;;;;32.17;18.97;;;1.00;99.90;0.00;101646;;;;563805;251;24183;-75
2022/12/02 05:27:57;;;;;;;42.97;19.63;;;1.00;99.90;0.00;101643;;;;574129;246;24088;-75
2022/12/02 05:30:25;;;;;;;34.00;19.00;;;1.00;99.90;0.00;101643;;;;574007;246;24108;-74
2022/12/02 05:32:53;;;;;;;35.77;21.50;;;1.00;99.90;0.00;101638;;;;563881;251;24113;-74
2022/12/02 05:35:21;;;;;;;35.83;19.80;;;1.00;99.90;0.00;101642;;;;573019;246;24132;-74
2022/12/02 05:37:50;;;;;;;32.20;19.17;;;1.00;99.90;0.00;101641;;;;573965;246;24081;-77
2022/12/02 05:40:18;;;;;;;34.50;19.77;;;1.00;99.90;0.00;101643;;;;563903;251;24176;-75
2022/12/02 05:42:46;;;;;;;33.80;19.67;;;1.00;99.90;0.00;101644;;;;563587;251;24114;-76
2022/12/02 05:45:14;;;;;;;38.37;20.17;;;1.00;99.90;0.00;101644;;;;563973;251;25141;-77
2022/12/02 05:47:47;;;;;;;41.13;20.73;;;1.00;99.90;0.00;101637;;;;572772;251;24134;-75
2022/12/02 05:50:15;;;;;;;35.77;20.20;;;1.00;99.90;0.00;101643;;;;564060;251;24136;-76
2022/12/02 05:52:44;;;;;;;33.43;18.20;;;1.00;99.90;0.00;101633;;;;563903;251;24108;-75
2022/12/02 05:55:15;;;;;;;38.17;19.57;;;1.00;99.90;0.00;101646;;;;564179;251;24159;-75
2022/12/02 05:57:43;;;;;;;37.67;20.00;;;1.00;99.90;-0.10;101640;;;;564440;251;24118;-75
2022/12/02 06:00:20;;;;;;;40.93;21.57;;;0.90;99.90;0.00;101653;;;;564466;251;24110;-74
2022/12/02 06:02:54;;;;;;;46.65;26.10;;;0.90;99.90;0.00;101644;;;;559500;249;35513;-74
2022/12/02 06:05:31;;;;;;;41.77;21.40;;;1.00;99.90;-0.10;101649;;;;565683;250;24120;-75
2022/12/02 06:07:59;;;;;;;45.40;24.20;;;0.90;99.90;-0.10;101647;;;;565028;251;24186;-76
2022/12/02 06:10:32;;;;;;;51.90;25.50;;;0.90;99.90;-0.10;101642;;;;565280;251;24120;-74
2022/12/02 06:13:12;;;;;;;46.47;23.60;;;0.90;99.90;-0.10;101653;;;;573638;250;24127;-75
2022/12/02 06:15:40;;;;;;;45.07;21.33;;;0.90;99.90;-0.10;101654;;;;564285;251;24278;-74
2022/12/02 06:18:20;;;;;;;39.37;21.93;;;0.90;99.90;-0.10;101658;;;;564844;251;24120;-75
2022/12/02 06:20:54;;;;;;;46.93;22.30;;;0.90;99.90;-0.10;101657;;;;582012;246;24091;-74
2022/12/02 06:23:23;;;;;;;41.70;21.20;;;0.80;99.90;-0.10;101660;;;;563763;251;24183;-75
2022/12/02 06:25:52;;;;;;;47.67;21.63;;;0.80;99.90;-0.20;101651;;;;574216;246;24087;-75
2022/12/02 06:28:22;;;;;;;48.17;21.77;;;0.80;99.90;-0.20;101662;;;;574692;246;24324;-75
2022/12/02 06:30:50;;;;;;;44.63;21.00;;;0.80;99.90;-0.20;101659;;;;574312;246;24076;-75
2022/12/02 06:33:33;;;;;;;49.43;22.40;;;0.80;99.90;-0.30;101666;;;;574243;246;24091;-75
2022/12/02 06:36:04;;;;;;;51.87;24.57;;;0.70;99.90;-0.40;101672;;;;583205;246;24089;-76
2022/12/02 06:38:33;;;;;;;45.27;22.60;;;0.60;99.90;-0.40;101672;;;;574711;242;24099;-75
2022/12/02 06:41:00;;;;;;;46.90;24.07;;;0.60;99.90;-0.30;101673;;;;573851;246;24124;-76
2022/12/02 06:43:35;;;;;;;44.90;22.17;;;0.60;99.90;-0.30;101676;;;;573982;246;24101;-77
2022/12/02 06:45:59;;;;;;;43.23;23.00;;;0.70;99.90;-0.30;101681;;;;583010;246;24075;-75
2022/12/02 06:48:31;;;;;;;47.80;22.43;;;0.60;99.90;-0.40;101676;;;;574589;246;24111;-74
2022/12/02 06:51:05;;;;;;;49.57;21.87;;;0.60;99.90;-0.40;101676;;;;574170;246;24130;-76
2022/12/02 06:53:39;;;;;;;42.67;21.43;;;0.60;99.90;-0.40;101678;;;;582525;241;24119;-74
2022/12/02 06:56:09;;;;;;;61.73;23.80;;;0.60;99.90;-0.40;101679;;;;574901;246;24111;-75
2022/12/02 06:58:43;;;;;;;44.37;21.63;;;0.60;99.90;-0.40;101682;;;;574478;246;24231;-74
2022/12/02 07:01:30;;;;;;;42.20;19.50;;;0.60;99.90;-0.40;101687;;;;574726;246;24095;-76
2022/12/02 07:03:57;;;;;;;48.33;24.17;;;0.50;99.90;-0.50;101677;;;;574472;246;24139;-75
2022/12/02 07:06:25;;;;;;;40.33;20.97;;;0.50;99.90;-0.50;101677;;;;579500;242;24051;-78
2022/12/02 07:08:56;;;;;;;43.43;19.37;;;0.50;99.90;-0.50;101686;;;;582130;242;24127;-78
2022/12/02 07:14:10;;;;;;;41.50;20.70;;;0.50;99.90;-0.50;101691;;;;583911;242;24102;-74
2022/12/02 07:16:38;;;;;;;35.97;18.90;;;0.50;99.90;-0.50;101695;;;;580537;242;24058;-80
2022/12/02 07:19:05;;;;;;;40.43;21.50;;;0.50;99.90;-0.60;101697;;;;585331;242;24066;-79
2022/12/02 07:21:33;;;;;;;42.13;22.37;;;0.40;99.90;-0.60;101693;;;;584246;242;24092;-79
2022/12/02 07:24:02;;;;;;;37.00;20.70;;;0.40;99.90;-0.60;101690;;;;584906;242;24081;-74
2022/12/02 07:26:31;;;;;;;43.40;22.60;;;0.40;99.90;-0.60;101687;;;;584706;242;24043;-79
2022/12/02 07:29:03;;;;;;;47.17;25.03;;;0.40;99.90;-0.60;101683;;;;584702;242;24098;-79
2022/12/02 07:31:28;;;;;;;44.30;22.57;;;0.40;99.90;-0.60;101689;;;;584427;242;24060;-76
2022/12/02 07:33:57;;;;;;;42.43;20.67;;;0.40;99.90;-0.60;101695;;;;592253;242;24056;-78
2022/12/02 07:36:25;;;;;;;40.83;21.30;;;0.40;99.90;-0.60;101690;;;;584436;242;24104;-79
2022/12/02 07:38:53;;;;;;;40.33;22.17;;;0.40;99.90;-0.50;101689;;;;584473;242;24075;-77
2022/12/02 07:41:21;;;;;;;38.80;19.87;;;0.40;99.90;-0.50;101685;;;;584439;242;24048;-80
2022/12/02 07:43:48;;;;;;;38.00;20.40;;;0.40;99.90;-0.60;101691;;;;584484;242;25108;-74
2022/12/02 07:46:17;;;;;;;41.13;21.30;;;0.40;99.90;-0.60;101686;;;;584102;242;24066;-74
2022/12/02 07:48:45;;;;;;;42.37;22.20;;;0.40;99.90;-0.60;101690;;;;583911;242;24084;-75
2022/12/02 07:51:15;;;;;;;43.13;21.33;;;0.40;99.90;-0.60;101691;;;;583963;242;24069;-73
2022/12/02 07:53:40;;;;;;;38.97;21.73;;;0.40;99.90;-0.60;101690;;;;583403;242;24072;-75
2022/12/02 07:56:08;;;;;;;46.77;21.83;;;0.40;99.90;-0.60;101691;;;;584192;242;24041;-75
2022/12/02 07:58:36;;;;;;;41.83;22.23;;;0.30;99.90;-0.60;101684;;;;583755;242;24063;-75
2022/12/02 08:01:08;;;;;;;44.57;22.97;;;0.40;99.90;-0.60;101692;;;;583651;242;24087;-76
2022/12/02 08:03:32;;;;;;;55.15;27.73;;;0.40;99.90;-0.60;101693;;;;585823;242;35221;-76
2022/12/02 08:06:00;;;;;;;53.07;24.70;;;0.40;99.90;-0.50;101692;;;;583524;242;24063;-74
2022/12/02 08:08:28;;;;;;;45.53;23.73;;;0.40;99.90;-0.50;101691;;;;583785;242;24080;-74
2022/12/02 08:10:56;;;;;;;47.40;21.60;;;0.50;99.90;-0.50;101697;;;;583704;241;24108;-76
2022/12/02 08:13:24;;;;;;;48.13;21.50;;;0.50;99.90;-0.60;101689;;;;583565;242;24142;-74
2022/12/02 08:15:52;;;;;;;43.13;21.77;;;0.40;99.90;-0.50;101684;;;;584157;242;24043;-75
2022/12/02 08:18:20;;;;;;;56.33;21.77;;;0.40;99.90;-0.60;101682;;;;584126;242;24071;-75
2022/12/02 08:20:47;;;;;;;56.23;23.97;;;0.40;99.90;-0.60;101691;;;;584125;242;24042;-75
2022/12/02 08:23:15;;;;;;;48.53;22.57;;;0.40;99.90;-0.50;101684;;;;584095;242;24093;-77
2022/12/02 08:25:43;;;;;;;39.30;22.23;;;0.40;99.90;-0.50;101688;;;;584142;242;24066;-75
2022/12/02 08:28:11;;;;;;;44.23;22.57;;;0.40;99.90;-0.50;101690;;;;585705;242;24055;-75
2022/12/02 08:30:39;;;;;;;43.63;20.30;;;0.40;99.90;-0.50;101694;;;;585179;242;24052;-75
2022/12/02 08:33:07;;;;;;;44.73;21.87;;;0.50;99.90;-0.50;101694;;;;584873;242;24044;-75
2022/12/02 08:35:38;;;;;;;37.83;22.13;;;0.50;99.90;-0.50;101699;;;;584881;242;24071;-75
2022/12/02 08:38:03;;;;;;;36.30;20.57;;;0.50;99.90;-0.50;101704;;;;591305;240;24125;-74
2022/12/02 08:40:31;;;;;;;41.90;21.73;;;0.50;99.90;-0.50;101696;;;;584688;242;24138;-79
2022/12/02 08:43:02;;;;;;;40.10;20.80;;;0.50;99.90;-0.50;101697;;;;584687;242;24028;-76
2022/12/02 08:45:27;;;;;;;40.63;23.10;;;0.50;99.90;-0.40;101696;;;;579085;242;35272;-76
2022/12/02 08:47:55;;;;;;;35.13;19.73;;;0.60;99.90;-0.40;101703;;;;583871;242;24129;-74
2022/12/02 08:50:26;;;;;;;35.00;20.17;;;0.60;99.90;-0.40;101697;;;;584111;242;24055;-75
2022/12/02 08:52:53;;;;;;;38.70;19.30;;;0.60;99.90;-0.40;101709;;;;583602;242;24133;-78
2022/12/02 08:55:18;;;;;;;33.17;17.60;;;0.60;99.90;-0.30;101699;;;;590829;242;24056;-77
2022/12/02 08:57:46;;;;;;;29.87;17.17;;;0.70;99.90;-0.30;101707;;;;584100;242;24056;-75
2022/12/02 09:00:14;;;;;;;24.57;15.13;;;0.70;99.90;-0.30;101704;;;;583974;242;24045;-78
2022/12/02 09:02:42;;;;;;;30.80;16.57;;;0.70;99.90;-0.30;101705;;;;591759;242;24065;-74
2022/12/02 09:05:10;;;;;;;30.13;14.27;;;0.70;99.90;-0.30;101713;;;;583729;242;24052;-80
2022/12/02 09:07:38;;;;;;;26.90;15.07;;;0.70;99.90;-0.40;101708;;;;583937;242;24056;-80
2022/12/02 09:10:06;;;;;;;25.27;14.57;;;0.60;99.90;-0.40;101717;;;;583910;242;24130;-79
2022/12/02 09:12:34;;;;;;;29.00;14.60;;;0.60;99.90;-0.50;101705;;;;592839;242;24071;-80
2022/12/02 09:15:02;;;;;;;25.70;15.27;;;0.50;99.90;-0.50;101702;;;;584155;242;24033;-81
2022/12/02 09:17:30;;;;;;;27.07;15.13;;;0.50;99.90;-0.50;101712;;;;593325;242;24046;-80
2022/12/02 09:20:01;;;;;;;25.57;13.77;;;0.50;99.90;-0.40;101717;;;;584247;242;24045;-81
2022/12/02 09:22:26;;;;;;;25.70;14.33;;;0.60;99.90;-0.40;101716;;;;591808;242;24106;-76
2022/12/02 09:24:54;;;;;;;30.00;16.00;;;0.60;99.90;-0.40;101706;;;;583735;242;24079;-75
2022/12/02 09:27:22;;;;;;;28.63;15.57;;;0.60;99.90;-0.40;101706;;;;583814;242;24095;-77
2022/12/02 09:29:49;;;;;;;29.80;17.07;;;0.60;99.90;-0.40;101712;;;;583643;242;24044;-76
2022/12/02 09:32:17;;;;;;;29.33;17.93;;;0.60;99.90;-0.50;101703;;;;583869;242;24076;-75
2022/12/02 09:34:45;;;;;;;34.13;17.37;;;0.50;99.90;-0.50;101707;;;;583746;242;24096;-75
2022/12/02 09:37:14;;;;;;;29.27;15.80;;;0.50;99.90;-0.40;101708;;;;583998;242;24048;-76
2022/12/02 09:39:43;;;;;;;27.40;16.33;;;0.60;99.90;-0.40;101706;;;;585341;242;24107;-79
2022/12/02 09:42:11;;;;;;;33.30;17.23;;;0.60;99.90;-0.50;101704;;;;584852;242;24071;-74
2022/12/02 09:44:43;;;;;;;31.27;18.23;;;0.60;99.90;-0.40;101703;;;;584919;242;24121;-82
2022/12/02 09:47:08;;;;;;;30.70;15.87;;;0.50;99.90;-0.40;101686;;;;574766;246;24190;-78
2022/12/02 09:49:36;;;;;;;29.40;17.87;;;0.60;99.90;-0.30;101692;;;;564885;251;24370;-79
2022/12/02 09:52:04;;;;;;;27.57;16.43;;;0.70;99.90;-0.30;101692;;;;575236;246;24072;-80
2022/12/02 09:54:32;;;;;;;25.80;16.83;;;0.70;99.90;-0.30;101689;;;;583950;246;24068;-79
2022/12/02 09:57:00;;;;;;;28.77;17.93;;;0.80;99.90;-0.20;101685;;;;573035;251;24129;-77
2022/12/02 09:59:30;;;;;;;27.70;16.47;;;0.80;99.90;-0.20;101684;;;;575162;246;24078;-78
2022/12/02 10:01:58;;;;;;;34.97;17.67;;;0.80;99.90;-0.10;101690;;;;573055;247;25202;-77
2022/12/02 10:04:26;;;;;;;37.63;18.10;;;0.90;99.90;-0.10;101683;;;;584417;242;24073;-75
2022/12/02 10:06:54;;;;;;;34.00;18.27;;;0.80;99.90;-0.10;101689;;;;584409;242;24071;-79
2022/12/02 10:09:22;;;;;;;36.83;19.63;;;0.90;99.90;-0.10;101693;;;;584466;242;24111;-76
2022/12/02 10:11:50;;;;;;;26.77;16.07;;;0.90;99.90;-0.20;101700;;;;593232;238;24086;-77
2022/12/02 10:14:18;;;;;;;26.87;16.80;;;0.80;99.90;-0.20;101688;;;;584039;242;24166;-77
2022/12/02 10:16:46;;;;;;;30.20;16.60;;;0.80;99.90;-0.20;101695;;;;583741;242;24056;-76
2022/12/02 10:19:17;;;;;;;29.80;16.37;;;0.80;99.90;-0.20;101701;;;;581620;242;24045;-77
2022/12/02 10:21:45;;;;;;;27.80;14.77;;;0.80;99.90;-0.30;101693;;;;583802;242;24079;-78
2022/12/02 10:24:13;;;;;;;28.57;16.27;;;0.70;99.90;-0.30;101698;;;;583968;242;24060;-79
2022/12/02 10:26:50;;;;;;;22.37;15.20;;;0.70;99.90;-0.30;101696;;;;583873;242;24063;-75
2022/12/02 10:29:18;;;;;;;25.17;15.40;;;0.70;99.90;-0.30;101695;;;;584182;242;24107;-80
2022/12/02 10:31:58;;;;;;;24.23;15.10;;;0.70;99.90;-0.40;101708;;;;583117;242;24062;-77
2022/12/02 10:34:30;;;;;;;29.17;16.80;;;0.60;99.90;-0.30;101706;;;;593098;242;24073;-81
2022/12/02 10:36:54;;;;;;;26.43;14.97;;;0.60;99.90;-0.40;101707;;;;583645;242;24063;-78
2022/12/02 10:39:28;;;;;;;27.87;15.03;;;0.60;99.90;-0.40;101703;;;;583787;242;24056;-77
2022/12/02 10:42:09;;;;;;;23.97;14.03;;;0.60;99.90;-0.40;101702;;;;591587;242;24120;-80
2022/12/02 10:44:35;;;;;;;19.83;12.93;;;0.60;99.90;-0.40;101705;;;;591103;242;24089;-79
2022/12/02 10:47:22;;;;;;;24.60;13.17;;;0.60;99.90;-0.50;101699;;;;591033;242;24069;-77
2022/12/02 10:49:56;;;;;;;29.53;13.67;;;0.50;99.90;-0.60;101699;;;;592445;241;24059;-77
2022/12/02 10:52:26;;;;;;;27.80;15.27;;;0.50;99.90;-0.50;101682;;;;592569;242;24149;-77
2022/12/02 10:54:54;;;;;;;24.87;14.17;;;0.50;99.90;-0.50;101677;;;;584593;242;24054;-79
2022/12/02 10:57:25;;;;;;;28.90;13.87;;;0.50;99.90;-0.40;101679;;;;582339;242;24068;-80
2022/12/02 10:59:53;;;;;;;36.43;16.30;;;0.60;99.90;-0.30;101670;;;;582984;242;24074;-79
2022/12/02 11:02:21;;;;;;;37.90;14.87;;;0.70;99.90;-0.20;101666;;;;582047;242;24062;-78
2022/12/02 11:04:49;;;;;;;30.30;15.03;;;0.80;99.90;-0.10;101660;;;;591814;242;24168;-76
2022/12/02 11:07:17;;;;;;;24.87;15.63;;;0.90;99.90;0.10;101659;;;;584125;242;24087;-74
2022/12/02 11:09:47;;;;;;;24.43;14.43;;;1.00;99.90;0.30;101656;;;;583810;242;24088;-77
2022/12/02 11:12:48;;;;;;;26.67;15.50;;;1.20;99.90;0.40;101659;;;;584006;242;24085;-74
2022/12/02 11:15:34;;;;;;;25.40;13.87;;;1.40;99.90;0.50;101654;;;;582489;242;24103;-76
2022/12/02 11:18:03;;;;;;;25.63;14.67;;;1.60;99.90;0.70;101660;;;;582725;242;25123;-78
2022/12/02 11:20:33;;;;;;;20.07;13.33;;;1.60;99.90;0.70;101663;;;;593528;242;24071;-77